Hollis, New Hampshire
Current Conditions -  °F | °C
As of 12:51 PM on Friday 28 Nov 2014 (Local Time) from KASH Reporting Station
Scattered Clouds Scattered Clouds  
Wind Chill: 24°   Ceiling: Unl
Heat Index: 32°   Visibility: 10mi
Dew Point: 22°   Wind: 10mph
Humidity: 67%   Direction: 320°NW
Pressure: 30.06"   Gusts: NA
Location:  42.74°N, 71.59°W
Report Text: KASH 281751Z 32009KT 10SM SCT032 00/M06 A3006 RMK AO2 58008 60000 T00001055 10005 21027 SLP438 $
Loading
Personal Weather Stations






























Interactive Weather Map New forecast layout! Learn more

10-Day Weather Forecast

Advertisements
Track Severe Weather on mobile